sensor_id;sensor_type;location;lat;lon;timestamp;P1;durP1;ratioP1;P2;durP2;ratioP2
3503;SDS011;1766;53.490;10.174;2022-12-07T00:01:15;22.47;;;12.90;;
3503;SDS011;1766;53.490;10.174;2022-12-07T00:03:19;21.50;;;12.80;;
3503;SDS011;1766;53.490;10.174;2022-12-07T00:05:21;21.00;;;12.30;;
3503;SDS011;1766;53.490;10.174;2022-12-07T00:07:22;21.10;;;12.13;;
3503;SDS011;1766;53.490;10.174;2022-12-07T00:09:24;20.67;;;12.33;;
3503;SDS011;1766;53.490;10.174;2022-12-07T00:11:26;19.47;;;12.37;;
3503;SDS011;1766;53.490;10.174;2022-12-07T00:13:30;23.10;;;12.10;;
3503;SDS011;1766;53.490;10.174;2022-12-07T00:15:33;20.73;;;12.37;;
3503;SDS011;1766;53.490;10.174;2022-12-07T00:17:43;21.37;;;13.07;;
3503;SDS011;1766;53.490;10.174;2022-12-07T00:19:44;25.33;;;13.17;;
3503;SDS011;1766;53.490;10.174;2022-12-07T00:21:46;23.00;;;12.90;;
3503;SDS011;1766;53.490;10.174;2022-12-07T00:23:49;23.30;;;13.80;;
3503;SDS011;1766;53.490;10.174;2022-12-07T00:25:52;21.63;;;13.27;;
3503;SDS011;1766;53.490;10.174;2022-12-07T00:27:54;23.77;;;13.67;;
3503;SDS011;1766;53.490;10.174;2022-12-07T00:29:58;22.63;;;13.23;;
3503;SDS011;1766;53.490;10.174;2022-12-07T00:31:59;25.80;;;13.37;;
3503;SDS011;1766;53.490;10.174;2022-12-07T00:34:01;23.43;;;13.50;;
3503;SDS011;1766;53.490;10.174;2022-12-07T00:36:04;24.03;;;14.17;;
3503;SDS011;1766;53.490;10.174;2022-12-07T00:38:12;26.47;;;13.90;;
3503;SDS011;1766;53.490;10.174;2022-12-07T00:40:14;25.43;;;12.63;;
3503;SDS011;1766;53.490;10.174;2022-12-07T00:42:16;17.97;;;11.50;;
3503;SDS011;1766;53.490;10.174;2022-12-07T00:44:18;25.53;;;12.40;;
3503;SDS011;1766;53.490;10.174;2022-12-07T00:46:22;20.43;;;13.80;;
3503;SDS011;1766;53.490;10.174;2022-12-07T00:48:24;21.73;;;13.73;;
3503;SDS011;1766;53.490;10.174;2022-12-07T00:50:26;20.20;;;13.00;;
3503;SDS011;1766;53.490;10.174;2022-12-07T00:52:28;27.93;;;13.10;;
3503;SDS011;1766;53.490;10.174;2022-12-07T00:54:30;21.37;;;12.90;;
3503;SDS011;1766;53.490;10.174;2022-12-07T00:56:32;23.10;;;14.23;;
3503;SDS011;1766;53.490;10.174;2022-12-07T00:58:34;22.83;;;12.63;;
3503;SDS011;1766;53.490;10.174;2022-12-07T01:00:37;108.30;;;51.40;;
3503;SDS011;1766;53.490;10.174;2022-12-07T01:02:42;33.20;;;18.77;;
3503;SDS011;1766;53.490;10.174;2022-12-07T01:04:44;19.40;;;11.73;;
3503;SDS011;1766;53.490;10.174;2022-12-07T01:06:45;20.27;;;12.00;;
3503;SDS011;1766;53.490;10.174;2022-12-07T01:08:47;20.37;;;11.87;;
3503;SDS011;1766;53.490;10.174;2022-12-07T01:10:56;18.63;;;10.90;;
3503;SDS011;1766;53.490;10.174;2022-12-07T01:13:00;19.17;;;10.07;;
3503;SDS011;1766;53.490;10.174;2022-12-07T01:15:02;18.70;;;11.33;;
3503;SDS011;1766;53.490;10.174;2022-12-07T01:17:05;19.03;;;10.57;;
3503;SDS011;1766;53.490;10.174;2022-12-07T01:19:08;18.70;;;11.07;;
3503;SDS011;1766;53.490;10.174;2022-12-07T01:21:11;11.87;;;6.30;;
3503;SDS011;1766;53.490;10.174;2022-12-07T01:23:15;16.03;;;9.13;;
3503;SDS011;1766;53.490;10.174;2022-12-07T01:25:17;18.37;;;9.43;;
3503;SDS011;1766;53.490;10.174;2022-12-07T01:27:19;15.00;;;8.63;;
3503;SDS011;1766;53.490;10.174;2022-12-07T01:29:20;11.23;;;6.83;;
3503;SDS011;1766;53.490;10.174;2022-12-07T01:31:23;12.63;;;7.03;;
3503;SDS011;1766;53.490;10.174;2022-12-07T01:33:27;18.07;;;8.63;;
3503;SDS011;1766;53.490;10.174;2022-12-07T01:35:34;15.93;;;7.53;;
3503;SDS011;1766;53.490;10.174;2022-12-07T01:37:36;16.97;;;8.70;;
3503;SDS011;1766;53.490;10.174;2022-12-07T01:39:39;14.60;;;8.63;;
3503;SDS011;1766;53.490;10.174;2022-12-07T01:41:42;11.67;;;6.17;;
3503;SDS011;1766;53.490;10.174;2022-12-07T01:46:12;12.40;;;7.90;;
3503;SDS011;1766;53.490;10.174;2022-12-07T01:48:29;13.87;;;7.90;;
3503;SDS011;1766;53.490;10.174;2022-12-07T01:50:35;12.83;;;7.73;;
3503;SDS011;1766;53.490;10.174;2022-12-07T01:52:39;11.77;;;7.90;;
3503;SDS011;1766;53.490;10.174;2022-12-07T01:54:43;11.20;;;6.10;;
3503;SDS011;1766;53.490;10.174;2022-12-07T01:56:49;14.80;;;7.10;;
3503;SDS011;1766;53.490;10.174;2022-12-07T01:58:54;10.20;;;6.73;;
3503;SDS011;1766;53.490;10.174;2022-12-07T02:00:58;10.10;;;5.83;;
3503;SDS011;1766;53.490;10.174;2022-12-07T02:03:11;16.70;;;8.03;;
3503;SDS011;1766;53.490;10.174;2022-12-07T02:05:19;13.70;;;7.70;;
3503;SDS011;1766;53.490;10.174;2022-12-07T02:07:22;9.07;;;6.23;;
3503;SDS011;1766;53.490;10.174;2022-12-07T02:09:25;16.23;;;7.63;;
3503;SDS011;1766;53.490;10.174;2022-12-07T02:11:27;12.83;;;7.00;;
3503;SDS011;1766;53.490;10.174;2022-12-07T02:13:29;14.67;;;6.93;;
3503;SDS011;1766;53.490;10.174;2022-12-07T02:15:38;11.53;;;6.73;;
3503;SDS011;1766;53.490;10.174;2022-12-07T02:17:57;11.60;;;6.37;;
3503;SDS011;1766;53.490;10.174;2022-12-07T02:20:11;8.50;;;5.53;;
3503;SDS011;1766;53.490;10.174;2022-12-07T02:22:30;8.90;;;5.03;;
3503;SDS011;1766;53.490;10.174;2022-12-07T02:24:53;14.73;;;6.60;;
3503;SDS011;1766;53.490;10.174;2022-12-07T02:27:04;12.60;;;6.60;;
3503;SDS011;1766;53.490;10.174;2022-12-07T02:29:30;9.87;;;5.73;;
3503;SDS011;1766;53.490;10.174;2022-12-07T02:31:37;8.07;;;5.43;;
3503;SDS011;1766;53.490;10.174;2022-12-07T02:33:49;10.93;;;5.10;;
3503;SDS011;1766;53.490;10.174;2022-12-07T02:36:04;7.27;;;4.50;;
3503;SDS011;1766;53.490;10.174;2022-12-07T02:38:12;12.60;;;5.17;;
3503;SDS011;1766;53.490;10.174;2022-12-07T02:40:22;13.07;;;6.80;;
3503;SDS011;1766;53.490;10.174;2022-12-07T02:42:31;14.43;;;5.97;;
3503;SDS011;1766;53.490;10.174;2022-12-07T02:44:39;13.10;;;6.60;;
3503;SDS011;1766;53.490;10.174;2022-12-07T02:46:42;10.10;;;4.67;;
3503;SDS011;1766;53.490;10.174;2022-12-07T02:48:48;6.13;;;3.90;;
3503;SDS011;1766;53.490;10.174;2022-12-07T02:50:52;12.47;;;6.23;;
3503;SDS011;1766;53.490;10.174;2022-12-07T02:52:55;10.13;;;5.73;;
3503;SDS011;1766;53.490;10.174;2022-12-07T02:54:57;9.40;;;5.60;;
3503;SDS011;1766;53.490;10.174;2022-12-07T02:57:00;7.47;;;4.33;;
3503;SDS011;1766;53.490;10.174;2022-12-07T02:59:22;7.53;;;3.80;;
3503;SDS011;1766;53.490;10.174;2022-12-07T03:01:39;9.10;;;5.10;;
3503;SDS011;1766;53.490;10.174;2022-12-07T03:04:02;7.53;;;4.60;;
3503;SDS011;1766;53.490;10.174;2022-12-07T03:06:20;12.57;;;3.80;;
3503;SDS011;1766;53.490;10.174;2022-12-07T03:08:30;11.47;;;4.90;;
3503;SDS011;1766;53.490;10.174;2022-12-07T03:10:40;8.80;;;3.93;;
3503;SDS011;1766;53.490;10.174;2022-12-07T03:12:53;8.50;;;4.43;;
3503;SDS011;1766;53.490;10.174;2022-12-07T03:15:05;9.23;;;3.73;;
3503;SDS011;1766;53.490;10.174;2022-12-07T03:17:15;7.90;;;3.50;;
3503;SDS011;1766;53.490;10.174;2022-12-07T03:19:20;7.20;;;3.53;;
3503;SDS011;1766;53.490;10.174;2022-12-07T03:21:25;11.40;;;3.83;;
3503;SDS011;1766;53.490;10.174;2022-12-07T03:23:30;7.30;;;3.90;;
3503;SDS011;1766;53.490;10.174;2022-12-07T03:25:37;11.73;;;3.80;;
3503;SDS011;1766;53.490;10.174;2022-12-07T03:27:44;9.27;;;4.10;;
3503;SDS011;1766;53.490;10.174;2022-12-07T03:29:56;9.07;;;4.30;;
3503;SDS011;1766;53.490;10.174;2022-12-07T03:32:02;6.47;;;4.17;;
3503;SDS011;1766;53.490;10.174;2022-12-07T03:34:11;8.73;;;4.10;;
3503;SDS011;1766;53.490;10.174;2022-12-07T03:36:20;7.03;;;2.70;;
3503;SDS011;1766;53.490;10.174;2022-12-07T03:38:29;9.17;;;3.40;;
3503;SDS011;1766;53.490;10.174;2022-12-07T03:40:40;8.30;;;3.50;;
3503;SDS011;1766;53.490;10.174;2022-12-07T03:42:46;7.83;;;3.37;;
3503;SDS011;1766;53.490;10.174;2022-12-07T03:44:48;5.37;;;3.23;;
3503;SDS011;1766;53.490;10.174;2022-12-07T03:46:52;8.83;;;3.37;;
3503;SDS011;1766;53.490;10.174;2022-12-07T03:49:04;4.33;;;2.97;;
3503;SDS011;1766;53.490;10.174;2022-12-07T03:51:16;6.40;;;2.70;;
3503;SDS011;1766;53.490;10.174;2022-12-07T03:53:22;6.63;;;3.23;;
3503;SDS011;1766;53.490;10.174;2022-12-07T03:55:31;3.47;;;2.30;;
3503;SDS011;1766;53.490;10.174;2022-12-07T03:57:36;4.83;;;3.10;;
3503;SDS011;1766;53.490;10.174;2022-12-07T03:59:41;6.83;;;2.90;;
3503;SDS011;1766;53.490;10.174;2022-12-07T04:01:44;6.43;;;2.67;;
3503;SDS011;1766;53.490;10.174;2022-12-07T04:03:53;4.50;;;2.60;;
3503;SDS011;1766;53.490;10.174;2022-12-07T04:05:56;4.33;;;2.47;;
3503;SDS011;1766;53.490;10.174;2022-12-07T04:07:59;6.60;;;2.47;;
3503;SDS011;1766;53.490;10.174;2022-12-07T04:10:01;7.43;;;2.53;;
3503;SDS011;1766;53.490;10.174;2022-12-07T04:12:03;3.60;;;2.60;;
3503;SDS011;1766;53.490;10.174;2022-12-07T04:14:05;7.63;;;2.23;;
3503;SDS011;1766;53.490;10.174;2022-12-07T04:16:21;4.40;;;2.20;;
3503;SDS011;1766;53.490;10.174;2022-12-07T04:18:23;6.77;;;2.47;;
3503;SDS011;1766;53.490;10.174;2022-12-07T04:20:25;5.77;;;2.13;;
3503;SDS011;1766;53.490;10.174;2022-12-07T04:22:28;2.93;;;2.27;;
3503;SDS011;1766;53.490;10.174;2022-12-07T04:24:31;4.73;;;2.00;;
3503;SDS011;1766;53.490;10.174;2022-12-07T04:26:34;3.13;;;1.60;;
3503;SDS011;1766;53.490;10.174;2022-12-07T04:28:36;10.80;;;3.30;;
3503;SDS011;1766;53.490;10.174;2022-12-07T04:30:37;3.83;;;2.10;;
3503;SDS011;1766;53.490;10.174;2022-12-07T04:32:39;2.10;;;1.47;;
3503;SDS011;1766;53.490;10.174;2022-12-07T04:34:41;3.73;;;2.10;;
3503;SDS011;1766;53.490;10.174;2022-12-07T04:36:43;1.57;;;1.47;;
3503;SDS011;1766;53.490;10.174;2022-12-07T04:38:47;7.67;;;2.20;;
3503;SDS011;1766;53.490;10.174;2022-12-07T04:40:49;5.90;;;1.87;;
3503;SDS011;1766;53.490;10.174;2022-12-07T04:42:51;4.23;;;1.27;;
3503;SDS011;1766;53.490;10.174;2022-12-07T04:44:53;6.10;;;2.47;;
3503;SDS011;1766;53.490;10.174;2022-12-07T04:46:55;4.60;;;2.10;;
3503;SDS011;1766;53.490;10.174;2022-12-07T04:48:58;5.67;;;2.17;;
3503;SDS011;1766;53.490;10.174;2022-12-07T04:51:01;8.00;;;2.10;;
3503;SDS011;1766;53.490;10.174;2022-12-07T04:53:04;5.77;;;1.90;;
3503;SDS011;1766;53.490;10.174;2022-12-07T04:55:08;4.10;;;1.80;;
3503;SDS011;1766;53.490;10.174;2022-12-07T04:57:10;5.10;;;1.90;;
3503;SDS011;1766;53.490;10.174;2022-12-07T04:59:12;5.73;;;1.87;;
3503;SDS011;1766;53.490;10.174;2022-12-07T05:01:15;5.60;;;1.80;;
3503;SDS011;1766;53.490;10.174;2022-12-07T05:03:18;4.60;;;2.47;;
3503;SDS011;1766;53.490;10.174;2022-12-07T05:05:20;6.93;;;2.00;;
3503;SDS011;1766;53.490;10.174;2022-12-07T05:07:22;3.00;;;2.03;;
3503;SDS011;1766;53.490;10.174;2022-12-07T05:09:24;4.30;;;2.33;;
3503;SDS011;1766;53.490;10.174;2022-12-07T05:11:27;4.20;;;2.20;;
3503;SDS011;1766;53.490;10.174;2022-12-07T05:13:43;4.73;;;2.33;;
3503;SDS011;1766;53.490;10.174;2022-12-07T05:15:46;3.73;;;2.17;;
3503;SDS011;1766;53.490;10.174;2022-12-07T05:17:48;5.37;;;3.60;;
3503;SDS011;1766;53.490;10.174;2022-12-07T05:19:52;5.87;;;2.53;;
3503;SDS011;1766;53.490;10.174;2022-12-07T05:21:54;5.70;;;2.93;;
3503;SDS011;1766;53.490;10.174;2022-12-07T05:23:56;5.60;;;2.67;;
3503;SDS011;1766;53.490;10.174;2022-12-07T05:25:58;4.03;;;2.57;;
3503;SDS011;1766;53.490;10.174;2022-12-07T05:28:01;6.47;;;2.67;;
3503;SDS011;1766;53.490;10.174;2022-12-07T05:30:04;3.40;;;2.00;;
3503;SDS011;1766;53.490;10.174;2022-12-07T05:36:30;3.57;;;2.27;;
3503;SDS011;1766;53.490;10.174;2022-12-07T05:38:32;6.70;;;2.37;;
3503;SDS011;1766;53.490;10.174;2022-12-07T05:40:35;3.37;;;2.30;;
3503;SDS011;1766;53.490;10.174;2022-12-07T05:42:39;4.73;;;2.80;;
3503;SDS011;1766;53.490;10.174;2022-12-07T05:44:43;9.53;;;2.17;;
3503;SDS011;1766;53.490;10.174;2022-12-07T05:46:47;5.13;;;2.67;;
3503;SDS011;1766;53.490;10.174;2022-12-07T05:51:00;56.07;;;27.20;;
3503;SDS011;1766;53.490;10.174;2022-12-07T05:55:13;5.13;;;2.63;;
3503;SDS011;1766;53.490;10.174;2022-12-07T05:57:15;8.57;;;3.00;;
3503;SDS011;1766;53.490;10.174;2022-12-07T05:59:17;4.37;;;2.40;;
3503;SDS011;1766;53.490;10.174;2022-12-07T06:01:28;3.23;;;1.77;;
3503;SDS011;1766;53.490;10.174;2022-12-07T06:03:31;6.80;;;3.47;;
3503;SDS011;1766;53.490;10.174;2022-12-07T06:05:33;4.47;;;2.50;;
3503;SDS011;1766;53.490;10.174;2022-12-07T06:11:57;6.07;;;3.03;;
3503;SDS011;1766;53.490;10.174;2022-12-07T06:14:14;4.87;;;3.07;;
3503;SDS011;1766;53.490;10.174;2022-12-07T06:16:16;4.77;;;2.13;;
3503;SDS011;1766;53.490;10.174;2022-12-07T06:18:20;7.97;;;2.60;;
3503;SDS011;1766;53.490;10.174;2022-12-07T06:22:33;63.17;;;32.03;;
3503;SDS011;1766;53.490;10.174;2022-12-07T06:24:36;40.03;;;18.33;;
3503;SDS011;1766;53.490;10.174;2022-12-07T06:28:50;7.87;;;3.10;;
3503;SDS011;1766;53.490;10.174;2022-12-07T06:30:56;8.17;;;2.53;;
3503;SDS011;1766;53.490;10.174;2022-12-07T06:32:59;4.17;;;2.33;;
3503;SDS011;1766;53.490;10.174;2022-12-07T06:35:02;7.17;;;2.30;;
3503;SDS011;1766;53.490;10.174;2022-12-07T06:37:05;4.90;;;2.60;;
3503;SDS011;1766;53.490;10.174;2022-12-07T06:39:07;6.23;;;2.77;;
3503;SDS011;1766;53.490;10.174;2022-12-07T06:41:09;6.27;;;2.80;;
3503;SDS011;1766;53.490;10.174;2022-12-07T06:43:11;7.73;;;3.63;;
3503;SDS011;1766;53.490;10.174;2022-12-07T06:45:13;7.23;;;4.27;;
3503;SDS011;1766;53.490;10.174;2022-12-07T06:47:15;4.87;;;2.57;;
3503;SDS011;1766;53.490;10.174;2022-12-07T06:49:17;6.23;;;2.33;;
3503;SDS011;1766;53.490;10.174;2022-12-07T06:51:21;5.70;;;3.03;;
3503;SDS011;1766;53.490;10.174;2022-12-07T06:53:23;9.20;;;3.20;;
3503;SDS011;1766;53.490;10.174;2022-12-07T06:55:25;4.40;;;2.40;;
3503;SDS011;1766;53.490;10.174;2022-12-07T06:57:26;4.87;;;2.37;;
3503;SDS011;1766;53.490;10.174;2022-12-07T06:59:28;3.37;;;2.73;;
3503;SDS011;1766;53.490;10.174;2022-12-07T07:01:30;3.63;;;2.80;;
3503;SDS011;1766;53.490;10.174;2022-12-07T07:03:33;3.53;;;2.70;;
3503;SDS011;1766;53.490;10.174;2022-12-07T07:05:35;6.97;;;3.10;;
3503;SDS011;1766;53.490;10.174;2022-12-07T07:07:39;4.10;;;2.50;;
3503;SDS011;1766;53.490;10.174;2022-12-07T07:22:47;6.33;;;2.80;;
3503;SDS011;1766;53.490;10.174;2022-12-07T07:24:49;9.50;;;3.50;;
3503;SDS011;1766;53.490;10.174;2022-12-07T07:26:52;9.43;;;3.13;;
3503;SDS011;1766;53.490;10.174;2022-12-07T07:39:46;8.00;;;2.15;;
3503;SDS011;1766;53.490;10.174;2022-12-07T07:46:03;12.57;;;6.77;;
3503;SDS011;1766;53.490;10.174;2022-12-07T07:48:05;10.67;;;4.93;;
3503;SDS011;1766;53.490;10.174;2022-12-07T07:50:08;5.73;;;2.80;;
3503;SDS011;1766;53.490;10.174;2022-12-07T07:52:11;3.40;;;2.03;;
3503;SDS011;1766;53.490;10.174;2022-12-07T07:54:13;6.87;;;2.03;;
3503;SDS011;1766;53.490;10.174;2022-12-07T07:56:16;5.03;;;1.47;;
3503;SDS011;1766;53.490;10.174;2022-12-07T07:58:18;2.27;;;1.40;;
3503;SDS011;1766;53.490;10.174;2022-12-07T08:00:20;3.33;;;1.67;;
3503;SDS011;1766;53.490;10.174;2022-12-07T08:02:23;9.23;;;1.47;;
3503;SDS011;1766;53.490;10.174;2022-12-07T08:04:25;1.60;;;1.10;;
3503;SDS011;1766;53.490;10.174;2022-12-07T08:06:27;3.27;;;0.97;;
3503;SDS011;1766;53.490;10.174;2022-12-07T08:08:29;2.37;;;0.80;;
3503;SDS011;1766;53.490;10.174;2022-12-07T08:10:31;1.10;;;1.00;;
3503;SDS011;1766;53.490;10.174;2022-12-07T08:12:36;4.20;;;1.47;;
3503;SDS011;1766;53.490;10.174;2022-12-07T08:14:58;7.40;;;3.53;;
3503;SDS011;1766;53.490;10.174;2022-12-07T08:17:00;3.63;;;1.20;;
3503;SDS011;1766;53.490;10.174;2022-12-07T08:19:04;2.00;;;1.17;;
3503;SDS011;1766;53.490;10.174;2022-12-07T08:21:06;7.03;;;3.17;;
3503;SDS011;1766;53.490;10.174;2022-12-07T08:23:12;3.57;;;1.70;;
3503;SDS011;1766;53.490;10.174;2022-12-07T08:25:14;5.10;;;1.03;;
3503;SDS011;1766;53.490;10.174;2022-12-07T08:27:16;4.83;;;1.00;;
3503;SDS011;1766;53.490;10.174;2022-12-07T08:29:19;5.80;;;1.20;;
3503;SDS011;1766;53.490;10.174;2022-12-07T08:31:21;2.67;;;1.13;;
3503;SDS011;1766;53.490;10.174;2022-12-07T08:33:23;8.00;;;3.37;;
3503;SDS011;1766;53.490;10.174;2022-12-07T08:35:26;2.07;;;1.03;;
3503;SDS011;1766;53.490;10.174;2022-12-07T08:37:27;2.77;;;1.67;;
3503;SDS011;1766;53.490;10.174;2022-12-07T08:39:29;9.70;;;4.43;;
3503;SDS011;1766;53.490;10.174;2022-12-07T08:41:31;6.80;;;1.77;;
3503;SDS011;1766;53.490;10.174;2022-12-07T08:43:34;2.20;;;1.03;;
3503;SDS011;1766;53.490;10.174;2022-12-07T08:45:38;4.27;;;1.40;;
3503;SDS011;1766;53.490;10.174;2022-12-07T08:47:42;3.37;;;1.10;;
3503;SDS011;1766;53.490;10.174;2022-12-07T08:49:49;11.77;;;1.30;;
3503;SDS011;1766;53.490;10.174;2022-12-07T08:51:52;2.30;;;0.80;;
3503;SDS011;1766;53.490;10.174;2022-12-07T08:53:56;6.03;;;1.00;;
3503;SDS011;1766;53.490;10.174;2022-12-07T08:56:00;3.73;;;0.90;;
3503;SDS011;1766;53.490;10.174;2022-12-07T08:58:02;1.37;;;0.90;;
3503;SDS011;1766;53.490;10.174;2022-12-07T09:00:05;7.23;;;1.07;;
3503;SDS011;1766;53.490;10.174;2022-12-07T09:02:10;1.73;;;1.00;;
3503;SDS011;1766;53.490;10.174;2022-12-07T09:04:12;4.13;;;1.03;;
3503;SDS011;1766;53.490;10.174;2022-12-07T09:06:14;2.30;;;1.00;;
3503;SDS011;1766;53.490;10.174;2022-12-07T09:08:16;4.67;;;1.07;;
3503;SDS011;1766;53.490;10.174;2022-12-07T09:10:18;2.10;;;1.33;;
3503;SDS011;1766;53.490;10.174;2022-12-07T09:12:20;6.10;;;0.90;;
3503;SDS011;1766;53.490;10.174;2022-12-07T09:14:22;2.20;;;0.70;;
3503;SDS011;1766;53.490;10.174;2022-12-07T09:16:24;0.67;;;0.67;;
3503;SDS011;1766;53.490;10.174;2022-12-07T09:18:34;4.00;;;1.93;;
3503;SDS011;1766;53.490;10.174;2022-12-07T09:20:36;2.63;;;0.63;;
3503;SDS011;1766;53.490;10.174;2022-12-07T09:22:38;4.90;;;0.90;;
3503;SDS011;1766;53.490;10.174;2022-12-07T09:24:40;5.33;;;1.80;;
3503;SDS011;1766;53.490;10.174;2022-12-07T09:26:42;5.63;;;0.93;;
3503;SDS011;1766;53.490;10.174;2022-12-07T09:28:44;2.73;;;1.20;;
3503;SDS011;1766;53.490;10.174;2022-12-07T09:30:46;4.83;;;2.00;;
3503;SDS011;1766;53.490;10.174;2022-12-07T09:32:49;4.47;;;1.03;;
3503;SDS011;1766;53.490;10.174;2022-12-07T09:34:52;7.03;;;0.73;;
3503;SDS011;1766;53.490;10.174;2022-12-07T09:36:54;4.87;;;1.17;;
3503;SDS011;1766;53.490;10.174;2022-12-07T09:38:56;3.47;;;0.87;;
3503;SDS011;1766;53.490;10.174;2022-12-07T09:40:57;4.83;;;1.20;;
3503;SDS011;1766;53.490;10.174;2022-12-07T09:43:11;2.73;;;1.40;;
3503;SDS011;1766;53.490;10.174;2022-12-07T09:45:15;4.83;;;0.93;;
3503;SDS011;1766;53.490;10.174;2022-12-07T09:47:21;3.13;;;0.90;;
3503;SDS011;1766;53.490;10.174;2022-12-07T09:49:24;5.87;;;1.43;;
3503;SDS011;1766;53.490;10.174;2022-12-07T09:51:30;5.30;;;0.83;;
3503;SDS011;1766;53.490;10.174;2022-12-07T09:53:33;3.50;;;0.87;;
3503;SDS011;1766;53.490;10.174;2022-12-07T09:55:37;4.73;;;1.03;;
3503;SDS011;1766;53.490;10.174;2022-12-07T09:57:42;6.73;;;1.47;;
3503;SDS011;1766;53.490;10.174;2022-12-07T09:59:44;6.03;;;1.47;;
3503;SDS011;1766;53.490;10.174;2022-12-07T10:01:47;6.53;;;1.00;;
3503;SDS011;1766;53.490;10.174;2022-12-07T10:03:51;4.17;;;0.90;;
3503;SDS011;1766;53.490;10.174;2022-12-07T10:05:56;7.97;;;1.27;;
3503;SDS011;1766;53.490;10.174;2022-12-07T10:07:59;4.10;;;1.13;;
3503;SDS011;1766;53.490;10.174;2022-12-07T10:10:02;5.30;;;1.50;;
3503;SDS011;1766;53.490;10.174;2022-12-07T10:12:06;2.63;;;0.80;;
3503;SDS011;1766;53.490;10.174;2022-12-07T10:14:12;6.10;;;1.83;;
3503;SDS011;1766;53.490;10.174;2022-12-07T10:18:39;5.27;;;1.60;;
3503;SDS011;1766;53.490;10.174;2022-12-07T10:20:44;2.43;;;1.30;;
3503;SDS011;1766;53.490;10.174;2022-12-07T10:22:55;8.43;;;1.10;;
3503;SDS011;1766;53.490;10.174;2022-12-07T10:25:07;3.70;;;1.20;;
3503;SDS011;1766;53.490;10.174;2022-12-07T10:27:18;2.00;;;0.90;;
3503;SDS011;1766;53.490;10.174;2022-12-07T10:29:23;0.80;;;0.77;;
3503;SDS011;1766;53.490;10.174;2022-12-07T10:31:30;1.80;;;0.57;;
3503;SDS011;1766;53.490;10.174;2022-12-07T10:33:35;5.70;;;1.07;;
3503;SDS011;1766;53.490;10.174;2022-12-07T10:35:41;2.93;;;1.17;;
3503;SDS011;1766;53.490;10.174;2022-12-07T10:37:44;5.30;;;1.17;;
3503;SDS011;1766;53.490;10.174;2022-12-07T10:39:48;4.77;;;0.90;;
3503;SDS011;1766;53.490;10.174;2022-12-07T10:41:53;5.27;;;1.10;;
3503;SDS011;1766;53.490;10.174;2022-12-07T10:43:57;4.30;;;0.90;;
3503;SDS011;1766;53.490;10.174;2022-12-07T10:48:38;1.87;;;0.50;;
3503;SDS011;1766;53.490;10.174;2022-12-07T10:50:53;3.43;;;0.70;;
3503;SDS011;1766;53.490;10.174;2022-12-07T10:53:09;1.43;;;0.77;;
3503;SDS011;1766;53.490;10.174;2022-12-07T10:55:28;4.23;;;0.70;;
3503;SDS011;1766;53.490;10.174;2022-12-07T10:57:47;4.57;;;0.93;;
3503;SDS011;1766;53.490;10.174;2022-12-07T11:00:07;1.40;;;0.63;;
3503;SDS011;1766;53.490;10.174;2022-12-07T11:04:55;4.43;;;0.73;;
3503;SDS011;1766;53.490;10.174;2022-12-07T11:07:07;2.73;;;0.70;;
3503;SDS011;1766;53.490;10.174;2022-12-07T11:09:23;2.40;;;0.80;;
3503;SDS011;1766;53.490;10.174;2022-12-07T11:11:49;2.30;;;0.53;;
3503;SDS011;1766;53.490;10.174;2022-12-07T11:14:01;2.13;;;0.60;;
3503;SDS011;1766;53.490;10.174;2022-12-07T11:16:16;0.70;;;0.40;;
3503;SDS011;1766;53.490;10.174;2022-12-07T11:18:36;0.90;;;0.40;;
3503;SDS011;1766;53.490;10.174;2022-12-07T11:20:51;1.20;;;0.60;;
3503;SDS011;1766;53.490;10.174;2022-12-07T11:23:02;2.23;;;0.60;;
3503;SDS011;1766;53.490;10.174;2022-12-07T11:25:18;8.33;;;1.03;;
3503;SDS011;1766;53.490;10.174;2022-12-07T11:27:34;4.17;;;0.60;;
3503;SDS011;1766;53.490;10.174;2022-12-07T11:29:46;8.53;;;0.70;;
3503;SDS011;1766;53.490;10.174;2022-12-07T11:32:02;3.50;;;0.83;;
3503;SDS011;1766;53.490;10.174;2022-12-07T11:34:19;7.20;;;0.70;;
3503;SDS011;1766;53.490;10.174;2022-12-07T11:36:31;4.47;;;1.20;;
3503;SDS011;1766;53.490;10.174;2022-12-07T11:38:41;4.60;;;1.10;;
3503;SDS011;1766;53.490;10.174;2022-12-07T11:40:48;11.57;;;1.87;;
3503;SDS011;1766;53.490;10.174;2022-12-07T11:42:57;2.50;;;0.80;;
3503;SDS011;1766;53.490;10.174;2022-12-07T11:45:10;2.43;;;0.93;;
3503;SDS011;1766;53.490;10.174;2022-12-07T11:47:18;5.73;;;1.00;;
3503;SDS011;1766;53.490;10.174;2022-12-07T11:49:32;3.00;;;0.90;;
3503;SDS011;1766;53.490;10.174;2022-12-07T11:51:42;3.53;;;0.90;;
3503;SDS011;1766;53.490;10.174;2022-12-07T11:53:46;5.50;;;0.80;;
3503;SDS011;1766;53.490;10.174;2022-12-07T11:55:54;5.60;;;0.73;;
3503;SDS011;1766;53.490;10.174;2022-12-07T11:58:04;2.07;;;0.80;;
3503;SDS011;1766;53.490;10.174;2022-12-07T12:00:22;4.73;;;0.97;;
3503;SDS011;1766;53.490;10.174;2022-12-07T12:02:26;1.63;;;0.63;;
3503;SDS011;1766;53.490;10.174;2022-12-07T12:04:38;4.20;;;1.00;;
3503;SDS011;1766;53.490;10.174;2022-12-07T12:06:52;6.90;;;1.03;;
3503;SDS011;1766;53.490;10.174;2022-12-07T12:08:54;6.07;;;0.90;;
3503;SDS011;1766;53.490;10.174;2022-12-07T12:11:08;3.30;;;0.73;;
3503;SDS011;1766;53.490;10.174;2022-12-07T12:13:31;4.43;;;0.97;;
3503;SDS011;1766;53.490;10.174;2022-12-07T12:16:00;4.80;;;0.77;;
3503;SDS011;1766;53.490;10.174;2022-12-07T12:20:45;4.37;;;0.83;;
3503;SDS011;1766;53.490;10.174;2022-12-07T12:22:53;3.60;;;0.90;;
3503;SDS011;1766;53.490;10.174;2022-12-07T12:24:59;2.53;;;0.97;;
3503;SDS011;1766;53.490;10.174;2022-12-07T12:27:07;7.60;;;1.50;;
3503;SDS011;1766;53.490;10.174;2022-12-07T12:29:21;5.47;;;1.00;;
3503;SDS011;1766;53.490;10.174;2022-12-07T12:31:31;6.43;;;0.90;;
3503;SDS011;1766;53.490;10.174;2022-12-07T12:33:44;18.63;;;1.40;;
3503;SDS011;1766;53.490;10.174;2022-12-07T12:35:59;5.33;;;0.70;;
3503;SDS011;1766;53.490;10.174;2022-12-07T12:38:30;5.47;;;1.20;;
3503;SDS011;1766;53.490;10.174;2022-12-07T12:40:38;7.43;;;0.70;;
3503;SDS011;1766;53.490;10.174;2022-12-07T12:42:43;4.67;;;1.10;;
3503;SDS011;1766;53.490;10.174;2022-12-07T12:54:57;5.17;;;1.27;;
3503;SDS011;1766;53.490;10.174;2022-12-07T12:57:04;6.57;;;1.20;;
3503;SDS011;1766;53.490;10.174;2022-12-07T13:01:40;7.57;;;3.57;;
3503;SDS011;1766;53.490;10.174;2022-12-07T13:03:51;10.20;;;2.33;;
3503;SDS011;1766;53.490;10.174;2022-12-07T13:08:21;6.00;;;1.97;;
3503;SDS011;1766;53.490;10.174;2022-12-07T13:10:31;8.03;;;1.37;;
3503;SDS011;1766;53.490;10.174;2022-12-07T13:12:39;7.67;;;2.67;;
3503;SDS011;1766;53.490;10.174;2022-12-07T13:14:43;6.00;;;1.00;;
3503;SDS011;1766;53.490;10.174;2022-12-07T13:16:58;6.33;;;1.00;;
3503;SDS011;1766;53.490;10.174;2022-12-07T13:19:00;8.17;;;2.10;;
3503;SDS011;1766;53.490;10.174;2022-12-07T13:21:01;1.03;;;0.40;;
3503;SDS011;1766;53.490;10.174;2022-12-07T13:23:29;7.40;;;1.60;;
3503;SDS011;1766;53.490;10.174;2022-12-07T13:25:35;2.30;;;0.90;;
3503;SDS011;1766;53.490;10.174;2022-12-07T13:27:47;7.27;;;1.60;;
3503;SDS011;1766;53.490;10.174;2022-12-07T13:29:58;8.50;;;1.37;;
3503;SDS011;1766;53.490;10.174;2022-12-07T13:32:02;4.90;;;1.17;;
3503;SDS011;1766;53.490;10.174;2022-12-07T13:34:05;2.63;;;0.90;;
3503;SDS011;1766;53.490;10.174;2022-12-07T13:36:30;9.20;;;1.20;;
3503;SDS011;1766;53.490;10.174;2022-12-07T13:38:36;7.50;;;1.00;;
3503;SDS011;1766;53.490;10.174;2022-12-07T13:40:38;4.17;;;1.00;;
3503;SDS011;1766;53.490;10.174;2022-12-07T13:42:40;7.47;;;1.23;;
3503;SDS011;1766;53.490;10.174;2022-12-07T13:44:43;5.53;;;1.13;;
3503;SDS011;1766;53.490;10.174;2022-12-07T13:46:48;6.23;;;1.40;;
3503;SDS011;1766;53.490;10.174;2022-12-07T13:48:58;5.80;;;0.97;;
3503;SDS011;1766;53.490;10.174;2022-12-07T13:51:00;5.70;;;1.53;;
3503;SDS011;1766;53.490;10.174;2022-12-07T13:53:07;5.93;;;1.07;;
3503;SDS011;1766;53.490;10.174;2022-12-07T13:55:16;12.50;;;5.20;;
3503;SDS011;1766;53.490;10.174;2022-12-07T13:57:18;8.23;;;1.97;;
3503;SDS011;1766;53.490;10.174;2022-12-07T13:59:21;16.67;;;7.90;;